| time (UTC) | temp C | wind direction | speed KPH | gust KPH | rain 1hr cm | rain 24hr cm | rain mn cm | humidity % | barometer mb |
| 20260505024911 | 13 | 5 | 0.0 | 3.2 | 0.00 | 0.00 | 0.00 | 62 | 1010.4 |
| 20260505023911 | 13 | 5 | 0.0 | 4.8 | 0.00 | 0.00 | 0.00 | 62 | 1010.3 |
| 20260505022911 | 14 | 82 | 1.6 | 3.2 | 0.00 | 0.00 | 0.00 | 60 | 1010.4 |
| 20260505021911 | 14 | 188 | 0.0 | 6.4 | 0.00 | 0.00 | 0.00 | 60 | 1010.4 |
| 20260505020911 | 14 | 30 | 4.8 | 6.4 | 0.00 | 0.00 | 0.00 | 59 | 1010.3 |
| 20260505015911 | 14 | 5 | 3.2 | 14.5 | 0.00 | 0.00 | 0.00 | 58 | 1010.2 |
| 20260505014911 | 15 | 148 | 0.0 | 4.8 | 0.00 | 0.00 | 0.00 | 57 | 1010.2 |
| 20260505013911 | 15 | 22 | 0.0 | 4.8 | 0.00 | 0.00 | 0.00 | 56 | 1010.1 |
| 20260505012911 | 15 | 339 | 0.0 | 4.8 | 0.00 | 0.00 | 0.00 | 55 | 1010.1 |
| 20260505011911 | 15 | 301 | 3.2 | 8.0 | 0.00 | 0.00 | 0.00 | 55 | 1010.0 |
| 20260505010911 | 15 | 355 | 0.0 | 8.0 | 0.00 | 0.00 | 0.00 | 54 | 1009.8 |
| 20260505005911 | 16 | 40 | 0.0 | 6.4 | 0.00 | 0.00 | 0.00 | 53 | 1009.6 |
| 20260505004911 | 16 | 251 | 0.0 | 11.3 | 0.00 | 0.00 | 0.00 | 52 | 1009.4 |
| 20260505003911 | 16 | 205 | 6.4 | 8.0 | 0.00 | 0.00 | 0.00 | 52 | 1009.3 |
| 20260505002912 | 16 | 11 | 0.0 | 8.0 | 0.00 | 0.00 | 0.00 | 51 | 1009.0 |
| 20260505001912 | 16 | 320 | 0.0 | 8.0 | 0.00 | 0.00 | 0.00 | 51 | 1008.7 |
| 20260505000911 | 17 | 162 | 0.0 | 6.4 | 0.00 | 0.00 | 0.00 | 50 | 1008.5 |
| 20260504235911 | 17 | 165 | 0.0 | 6.4 | 0.00 | 0.00 | 0.00 | 49 | 1008.2 |
| 20260504234911 | 17 | 53 | 0.0 | 6.4 | 0.00 | 0.00 | 0.00 | 49 | 1008.0 |
| 20260504233911 | 17 | 69 | 4.8 | 8.0 | 0.00 | 0.00 | 0.00 | 48 | 1007.8 |
| 20260504232911 | 18 | 165 | 0.0 | 9.7 | 0.00 | 0.00 | 0.00 | 48 | 1007.7 |
| 20260504231912 | 18 | 273 | 0.0 | 11.3 | 0.00 | 0.00 | 0.00 | 47 | 1007.6 |
| 20260504230911 | 18 | 295 | 0.0 | 6.4 | 0.00 | 0.00 | 0.00 | 46 | 1007.4 |
| 20260504225911 | 19 | 145 | 3.2 | 9.7 | 0.00 | 0.00 | 0.00 | 44 | 1007.1 |
| 20260504224911 | 19 | 22 | 0.0 | 8.0 | 0.00 | 0.00 | 0.00 | 43 | 1007.0 |
| 20260504223911 | 20 | 205 | 0.0 | 6.4 | 0.00 | 0.00 | 0.00 | 42 | 1006.8 |
| 20260504222911 | 20 | 250 | 0.0 | 8.0 | 0.00 | 0.00 | 0.00 | 42 | 1006.7 |
| 20260504221912 | 20 | 290 | 1.6 | 11.3 | 0.00 | 0.00 | 0.00 | 40 | 1006.7 |
| 20260504220911 | 21 | 40 | 0.0 | 9.7 | 0.00 | 0.00 | 0.00 | 38 | 1006.7 |
| 20260504215911 | 21 | 5 | 1.6 | 11.3 | 0.00 | 0.00 | 0.00 | 35 | 1006.6 |
| 20260504214911 | 21 | 325 | 0.0 | 4.8 | 0.00 | 0.00 | 0.00 | 35 | 1006.5 |
| 20260504213911 | 22 | 102 | 0.0 | 8.0 | 0.00 | 0.00 | 0.00 | 34 | 1006.6 |
| 20260504212911 | 22 | 232 | 0.0 | 12.9 | 0.00 | 0.00 | 0.00 | 34 | 1006.6 |
| 20260504211911 | 22 | 13 | 1.6 | 9.7 | 0.00 | 0.00 | 0.00 | 33 | 1006.6 |
| 20260504210911 | 22 | 286 | 0.0 | 9.7 | 0.00 | 0.00 | 0.00 | 33 | 1006.5 |
| 20260504205911 | 22 | 266 | 0.0 | 8.0 | 0.00 | 0.00 | 0.00 | 32 | 1006.6 |
| 20260504204911 | 22 | 302 | 1.6 | 8.0 | 0.00 | 0.00 | 0.00 | 33 | 1006.5 |
| 20260504203912 | 22 | 238 | 1.6 | 9.7 | 0.00 | 0.00 | 0.00 | 32 | 1006.6 |
| 20260504202911 | 22 | 168 | 3.2 | 8.0 | 0.00 | 0.00 | 0.00 | 32 | 1006.7 |
| 20260504201911 | 22 | 232 | 3.2 | 14.5 | 0.00 | 0.00 | 0.00 | 31 | 1006.7 |
| 20260504200911 | 23 | 240 | 0.0 | 9.7 | 0.00 | 0.00 | 0.00 | 30 | 1006.7 |
| 20260504195912 | 23 | 300 | 0.0 | 6.4 | 0.00 | 0.00 | 0.00 | 32 | 1006.7 |
| 20260504194911 | 23 | 355 | 3.2 | 8.0 | 0.00 | 0.00 | 0.00 | 29 | 1006.6 |
| 20260504193911 | 23 | 15 | 3.2 | 11.3 | 0.00 | 0.00 | 0.00 | 30 | 1006.9 |
| 20260504192913 | 22 | 28 | 1.6 | 11.3 | 0.00 | 0.00 | 0.00 | 30 | 1006.8 |
| 20260504191911 | 23 | 247 | 3.2 | 9.7 | 0.00 | 0.00 | 0.00 | 30 | 1006.8 |
| 20260504190911 | 23 | 177 | 3.2 | 8.0 | 0.00 | 0.00 | 0.00 | 30 | 1006.9 |
| 20260504185911 | 23 | 146 | 0.0 | 11.3 | 0.00 | 0.00 | 0.00 | 30 | 1006.9 |
| 20260504184912 | 23 | 241 | 0.0 | 9.7 | 0.00 | 0.00 | 0.00 | 30 | 1007.1 |
| 20260504183911 | 23 | 188 | 4.8 | 16.1 | 0.00 | 0.00 | 0.00 | 30 | 1007.1 |
| 20260504182911 | 22 | 28 | 1.6 | 11.3 | 0.00 | 0.00 | 0.00 | 32 | 1007.2 |
| 20260504181911 | 22 | 28 | 9.7 | 9.7 | 0.00 | 0.00 | 0.00 | 30 | 1007.1 |
| 20260504180911 | 22 | 239 | 4.8 | 8.0 | 0.00 | 0.00 | 0.00 | 30 | 1007.3 |
| 20260504175911 | 22 | 331 | 3.2 | 8.0 | 0.00 | 0.00 | 0.00 | 32 | 1007.4 |
| 20260504174912 | 22 | 294 | 1.6 | 17.7 | 0.00 | 0.00 | 0.00 | 34 | 1007.5 |
| 20260504173911 | 22 | 219 | 6.4 | 11.3 | 0.00 | 0.00 | 0.00 | 33 | 1007.4 |
| 20260504172913 | 21 | 238 | 9.7 | 9.7 | 0.00 | 0.00 | 0.00 | 32 | 1007.7 |
| 20260504171911 | 21 | 17 | 4.8 | 16.1 | 0.00 | 0.00 | 0.00 | 32 | 1007.6 |
| 20260504170912 | 21 | 306 | 3.2 | 11.3 | 0.00 | 0.00 | 0.00 | 33 | 1007.5 |
| 20260504150912 | 20 | 329 | 3.2 | 9.7 | 0.00 | 0.00 | 0.00 | 38 | 1008.9 |
| 20260504140913 | 17 | 243 | 1.6 | 8.0 | 0.00 | 0.00 | 0.00 | 42 | 1009.5 |
| 20260504081912 | 6 | 5 | 0.0 | 0.0 | 0.00 | 0.00 | 0.00 | 69 | 1010.6 |
| 20260504080912 | 6 | 5 | 0.0 | 0.0 | 0.00 | 0.00 | 0.00 | 69 | 1010.6 |
| 20260504045913 | 3 | 5 | 0.0 | 0.0 | 0.00 | 0.00 | 0.00 | 64 | 1010.5 |
| 20260504044914 | 3 | 5 | 0.0 | 0.0 | 0.00 | 0.00 | 0.00 | 65 | 1010.5 |
| 20260504043914 | 3 | 5 | 0.0 | 0.0 | 0.00 | 0.00 | 0.00 | 66 | 1010.5 |
| 20260504042913 | 3 | 5 | 0.0 | 0.0 | 0.00 | 0.00 | 0.00 | 68 | 1010.5 |
| 20260504041913 | 3 | 5 | 0.0 | 0.0 | 0.00 | 0.00 | 0.00 | 67 | 1010.5 |
| 20260504040914 | 3 | 5 | 0.0 | 0.0 | 0.00 | 0.00 | 0.00 | 69 | 1010.5 |
| 20260504035913 | 3 | 5 | 0.0 | 0.0 | 0.00 | 0.00 | 0.03 | 70 | 1010.2 |
| 20260504034913 | 4 | 5 | 0.0 | 0.0 | 0.00 | 0.00 | 0.03 | 70 | 1010.2 |
| 20260504033913 | 4 | 5 | 0.0 | 0.0 | 0.00 | 0.00 | 0.03 | 70 | 1010.1 |
| 20260504032914 | 4 | 5 | 0.0 | 0.0 | 0.00 | 0.00 | 0.03 | 70 | 1010.1 |
| 20260504031913 | 4 | 5 | 0.0 | 0.0 | 0.00 | 0.00 | 0.03 | 70 | 1010.1 |
| 20260504030913 | 4 | 5 | 0.0 | 0.0 | 0.00 | 0.00 | 0.03 | 70 | 1010.1 |
| 20260504025913 | 5 | 5 | 0.0 | 0.0 | 0.00 | 0.00 | 0.03 | 70 | 1010.0 |